Wednesday, August 15, 2018, 4:44 AM EDT
Back to Local

KIWI, Wiscasset Municipal Airport

Location: Wiscasset, ME, United States Lat: 43.967
Local Time: 4:44 AM EDT ( 8:44 GMT) Lon: -69.717
Time Zone: US/Eastern Elev: 68 ft

Show me the last for .
Show Decoded

2018-08-15 04:29 METAR KIWI 150829Z AUTO 00000KT 2SM BR OVC002 21/21 A2981 RMK AO2 T02060206 =
2018-08-15 04:14 METAR KIWI 150814Z AUTO 00000KT 1SM BR VV002 21/21 A2981 RMK AO2 T02060206 =
2018-08-15 03:53 METAR KIWI 150753Z AUTO 00000KT 1 1/2SM BR OVC002 21/21 A2982 RMK AO2 SLP095
                 T02060206 =
2018-08-15 03:46 METAR KIWI 150746Z AUTO 00000KT 1 1/2SM BR OVC002 21/21 A2981 RMK AO2 T02060206
                 =
2018-08-15 03:28 METAR KIWI 150728Z AUTO 00000KT 1 1/4SM BR OVC002 21/21 A2981 RMK AO2 T02060206
                 =
2018-08-15 03:08 METAR KIWI 150708Z AUTO 00000KT 2 1/2SM BR OVC002 21/21 A2982 RMK AO2 T02060206
                 =
2018-08-15 02:53 METAR KIWI 150653Z AUTO 00000KT 4SM BR OVC002 21/21 A2983 RMK AO2 SLP099
                 T02060206 =
2018-08-15 02:46 METAR KIWI 150646Z AUTO 00000KT 4SM BR OVC002 21/21 A2983 RMK AO2 T02060206 =
2018-08-15 02:34 METAR KIWI 150634Z AUTO 00000KT 2 1/2SM BR OVC002 21/21 A2983 RMK AO2 T02060206
                 =
2018-08-15 02:13 METAR KIWI 150613Z AUTO 00000KT 1 1/2SM BR OVC002 21/21 A2983 RMK AO2 T02060206
                 =
2018-08-15 02:01 METAR KIWI 150601Z AUTO 00000KT 2SM BR OVC002 21/21 A2984 RMK AO2 T02060206 =
2018-08-15 01:53 METAR KIWI 150553Z AUTO 00000KT 1 1/4SM BR OVC002 21/21 A2984 RMK AO2 SLP104
                 T02110211 10211 20206 58008 =
2018-08-15 01:40 METAR KIWI 150540Z AUTO 00000KT 1SM BR VV002 21/21 A2985 RMK AO2 T02110211 =
2018-08-15 01:29 METAR KIWI 150529Z AUTO 00000KT 3/4SM BR VV002 21/21 A2985 RMK AO2 T02110211 =
2018-08-15 01:13 METAR KIWI 150513Z AUTO 00000KT 1 1/4SM BR OVC002 21/21 A2985 RMK AO2 T02110211
                 =
2018-08-15 00:53 METAR KIWI 150453Z AUTO 00000KT 1/2SM FG VV002 21/21 A2985 RMK AO2 SLP109
                 T02110211 402390194 =
2018-08-14 23:53 METAR KIWI 150353Z AUTO 00000KT 1/2SM FG VV002 21/21 A2986 RMK AO2 SLP112
                 T02110211 =
2018-08-14 23:17 METAR KIWI 150317Z AUTO 07003KT 3/4SM BR VV002 22/21 A2986 RMK AO2 T02170206 =
2018-08-14 23:09 METAR KIWI 150309Z AUTO 08003KT 1SM BR OVC002 21/21 A2986 RMK AO2 T02060206 =
2018-08-14 22:50 METAR KIWI 150250Z AUTO 00000KT 1 3/4SM BR OVC003 21/21 A2987 RMK AO2 SLP113
                 T02060206 58002 =
2018-08-14 22:49 METAR KIWI 150249Z AUTO 00000KT 1 1/2SM BR OVC003 21/21 A2987 RMK AO2 =
2018-08-14 21:53 METAR KIWI 150153Z AUTO 00000KT 1/2SM FG VV002 21/21 A2987 RMK AO2 SLP116
                 T02060206 =
2018-08-14 21:50 METAR KIWI 150150Z AUTO 00000KT 1/2SM FG VV002 21/21 A2987 RMK AO2 =
2018-08-14 21:33 METAR KIWI 150133Z AUTO 00000KT 1SM BR VV003 21/21 A2987 RMK AO2 T02060206 =
2018-08-14 20:53 METAR KIWI 150053Z AUTO 00000KT 3/4SM BR VV002 21/21 A2987 RMK AO2 SLP116
                 T02060206 =
2018-08-14 20:28 METAR KIWI 150028Z AUTO 08003KT 3/4SM BR VV002 21/21 A2988 RMK AO2 T02060206 =
2018-08-14 20:17 METAR KIWI 150017Z AUTO 00000KT 1SM BR OVC002 21/21 A2988 RMK AO2 T02060206 =
2018-08-14 20:08 METAR KIWI 150008Z AUTO VRB03KT 1 3/4SM BR OVC002 21/21 A2988 RMK AO2 T02060206
                 =
2018-08-14 19:53 METAR KIWI 142353Z AUTO VRB03KT 6SM BR OVC002 21/21 A2987 RMK AO2 SLP116
                 T02060206 10239 20206 55001 =
2018-08-14 19:16 METAR KIWI 142316Z AUTO 15004KT 5SM BR OVC004 21/21 A2987 RMK AO2 T02060206 =
2018-08-14 18:53 METAR KIWI 142253Z AUTO VRB03KT 10SM OVC006 22/21 A2987 RMK AO2 SLP113 T02170211
                 =
2018-08-14 18:43 METAR KIWI 142243Z AUTO 17004KT 10SM BKN006 22/21 A2987 RMK AO2 T02170211 =
2018-08-14 18:22 METAR KIWI 142222Z AUTO 18004KT 10SM SCT008 22/21 A2987 RMK AO2 T02220211 =
2018-08-14 18:01 METAR KIWI 142201Z AUTO 18004KT 10SM OVC009 23/22 A2987 RMK AO2 T02330217 =
2018-08-14 17:53 METAR KIWI 142153Z AUTO 13004KT 10SM OVC010 23/22 A2987 RMK AO2 SLP115 T02330217
                 =
2018-08-14 17:26 METAR KIWI 142126Z AUTO 00000KT 10SM BKN011 24/22 A2988 RMK AO2 T02390217 =
2018-08-14 17:04 METAR KIWI 142104Z AUTO 13004KT 10SM SCT010 24/21 A2988 RMK AO2 T02390211 =
2018-08-14 16:53 METAR KIWI 142053Z AUTO 00000KT 10SM BKN008 24/22 A2988 RMK AO2 SLP116 T02390217
                 58015 =
2018-08-14 15:53 METAR KIWI 141953Z AUTO 18004KT 10SM OVC005 22/21 A2990 RMK AO2 SLP124 T02220211
                 =
2018-08-14 15:15 METAR KIWI 141915Z AUTO 16005KT 3SM BR OVC004 21/21 A2991 RMK AO2 T02110211 =
2018-08-14 14:53 METAR KIWI 141853Z AUTO 20004KT 4SM BR OVC005 22/21 A2991 RMK AO2 SLP128
                 T02170211 =
2018-08-14 14:03 METAR KIWI 141803Z AUTO VRB05KT 10SM OVC005 22/21 A2992 RMK AO2 T02220211 =
2018-08-14 13:53 METAR KIWI 141753Z AUTO 14004KT 10SM OVC004 22/21 A2992 RMK AO2 SLP132 60009
                 T02220211 10222 20200 58009 =
2018-08-14 12:53 METAR KIWI 141653Z AUTO 10004KT 5SM BR OVC003 21/21 A2993 RMK AO2 SLP136
                 T02110211 =
2018-08-14 12:35 METAR KIWI 141635Z AUTO 00000KT 5SM BR OVC003 21/21 A2994 RMK AO2 T02110206 =
2018-08-14 12:27 METAR KIWI 141627Z AUTO 18004KT 2 1/2SM BR OVC003 21/21 A2994 RMK AO2 T02060206
                 =
2018-08-14 12:18 METAR KIWI 141618Z AUTO 09004KT 3SM BR OVC003 21/21 A2994 RMK AO2 T02060206 =
2018-08-14 12:08 METAR KIWI 141608Z AUTO 00000KT 2SM BR OVC002 21/21 A2994 RMK AO2 T02060206 =
2018-08-14 11:53 METAR KIWI 141553Z AUTO VRB03KT 4SM BR OVC002 20/20 A2994 RMK AO2 SLP139
                 T02000200 =
2018-08-14 10:53 METAR KIWI 141453Z AUTO 12004KT 10SM OVC004 21/21 A2995 RMK AO2 RAB18E48 SLP141
                 P0008 60009 T02060206 56003 =
2018-08-14 10:50 METAR KIWI 141450Z AUTO 11004KT 10SM OVC006 21/21 A2995 RMK AO2 RAB18E48 P0008 =
2018-08-14 10:42 METAR KIWI 141442Z AUTO 11004KT 2SM -RA BR OVC008 20/20 A2995 RMK AO2 RAB18
                 P0008 T02000200 =
2018-08-14 10:34 METAR KIWI 141434Z AUTO 11003KT 4SM -RA BR BKN006 OVC011 21/21 A2995 RMK AO2
                 RAB18 P0005 T02060206 =
2018-08-14 10:26 METAR KIWI 141426Z AUTO 14003KT 2 1/2SM -RA BR BKN005 OVC050 21/21 A2995 RMK AO2
                 RAB18 P0003 T02060206 =
2018-08-14 09:53 METAR KIWI 141353Z AUTO 11004KT 10SM OVC005 21/21 A2995 RMK AO2 RAB24E51 SLP143
                 P0001 T02060206 =
2018-08-14 09:38 METAR KIWI 141338Z AUTO VRB05KT 2 1/2SM -RA BR OVC004 21/20 A2996 RMK AO2 RAB24
                 CIG 003V006 P0001 T02060200 =
2018-08-14 08:53 METAR KIWI 141253Z AUTO 11006KT 10SM OVC004 20/20 A2996 RMK AO2 SLP145 T02000200
                 =
2018-08-14 07:53 METAR KIWI 141153Z AUTO 08005KT 10SM OVC003 19/19 A2996 RMK AO2 SLP145 T01940194
                 10194 20194 53000 =
2018-08-14 07:01 METAR KIWI 141101Z AUTO 00000KT 3SM BR OVC002 19/19 A2996 RMK AO2 T01940194 =
2018-08-14 06:53 METAR KIWI 141053Z AUTO 00000KT 1 1/2SM BR OVC002 19/19 A2996 RMK AO2 SLP145
                 T01940194 =
2018-08-14 05:53 METAR KIWI 140953Z AUTO 06003KT 3/4SM BR VV002 19/19 A2995 RMK AO2 SLP142
                 T01940194 =
2018-08-14 05:36 METAR KIWI 140936Z AUTO 00000KT 3/4SM BR VV002 19/19 A2995 RMK AO2 T01940194 =
2018-08-14 05:21 METAR KIWI 140921Z AUTO 00000KT 1 1/4SM BR OVC002 19/19 A2996 RMK AO2 T01940194
                 =
2018-08-14 04:53 METAR KIWI 140853Z AUTO 00000KT 1 1/2SM BR OVC002 19/19 A2996 RMK AO2 SLP144
                 T01940194 56009 =

Support USWX by starting your Amazon purchase here.